Time;durP1;ratioP1;P1;durP2;ratioP2;P2;SDS_P1;SDS_P2;PMS_P1;PMS_P2;Temp;Humidity;BMP_temperature;BMP_pressure;BME280_temperature;BME280_humidity;BME280_pressure;Samples;Min_cycle;Max_cycle;Signal;HPM_P1;HPM_P2
2023/09/03 00:00:58;;;;;;;13.40;7.00;;;;;;;16.02;70.30;101371.72;111042;1214;97745;-62
2023/09/03 00:03:23;;;;;;;11.70;6.60;;;;;;;15.96;70.38;101371.83;111213;1208;97588;-62
2023/09/03 00:05:56;;;;;;;18.80;7.40;;;;;;;15.90;70.42;101374.67;111097;1208;99302;-62
2023/09/03 00:08:22;;;;;;;11.00;7.00;;;;;;;15.86;70.65;101374.36;111239;1209;99704;-62
2023/09/03 00:10:52;;;;;;;11.90;7.60;;;;;;;15.85;70.79;101377.13;111143;1208;99194;-62
2023/09/03 00:13:18;;;;;;;13.90;7.80;;;;;;;15.84;70.88;101380.04;111223;1212;98943;-63
2023/09/03 00:15:44;;;;;;;12.60;7.30;;;;;;;15.83;70.83;101381.73;111143;1212;98020;-62
2023/09/03 00:18:11;;;;;;;14.60;8.50;;;;;;;15.80;70.98;101378.84;111084;1213;97783;-64
2023/09/03 00:20:37;;;;;;;13.00;7.90;;;;;;;15.78;71.16;101379.66;111091;1212;108052;-62
2023/09/03 00:23:02;;;;;;;12.60;7.50;;;;;;;15.76;71.16;101377.93;111096;1208;97572;-63
2023/09/03 00:25:28;;;;;;;13.70;7.40;;;;;;;15.72;71.24;101379.99;111159;1213;97694;-62
2023/09/03 00:27:53;;;;;;;11.00;7.50;;;;;;;15.69;71.50;101381.61;111125;1208;97600;-62
2023/09/03 00:30:18;;;;;;;15.40;7.40;;;;;;;15.66;71.53;101377.22;111155;1208;97586;-62
2023/09/03 00:32:43;;;;;;;10.00;7.40;;;;;;;15.66;71.71;101378.34;111146;1212;97717;-62
2023/09/03 00:35:09;;;;;;;15.30;7.50;;;;;;;15.65;71.77;101374.75;111111;1209;97586;-62
2023/09/03 00:37:34;;;;;;;13.40;7.60;;;;;;;15.63;71.71;101371.98;111156;1212;97686;-62
2023/09/03 00:39:59;;;;;;;11.80;8.20;;;;;;;15.60;71.88;101371.07;111100;1209;97766;-62
2023/09/03 00:42:25;;;;;;;12.20;7.30;;;;;;;15.58;72.03;101370.85;111137;1208;97684;-62
2023/09/03 00:44:50;;;;;;;14.00;8.40;;;;;;;15.56;72.05;101372.02;111174;1212;98262;-62
2023/09/03 00:47:17;;;;;;;16.50;8.20;;;;;;;15.51;72.12;101372.98;111198;1212;97640;-62
2023/09/03 00:49:43;;;;;;;16.50;8.30;;;;;;;15.46;72.21;101368.00;111199;1212;97690;-62
2023/09/03 00:52:10;;;;;;;13.80;8.30;;;;;;;15.41;72.22;101365.77;111145;1208;97629;-62
2023/09/03 00:54:36;;;;;;;14.40;8.30;;;;;;;15.37;72.39;101363.08;111145;1212;97773;-62
2023/09/03 00:57:02;;;;;;;15.50;8.20;;;;;;;15.37;72.54;101363.12;111217;1208;97642;-63
2023/09/03 00:59:28;;;;;;;13.50;7.80;;;;;;;15.33;72.58;101363.65;111120;1208;97648;-63
2023/09/03 01:01:54;;;;;;;13.90;8.30;;;;;;;15.30;72.70;101363.27;111196;1208;97745;-62
2023/09/03 01:04:19;;;;;;;13.10;7.70;;;;;;;15.26;72.64;101363.47;111154;1208;95222;-62
2023/09/03 01:06:48;;;;;;;13.20;8.30;;;;;;;15.21;72.87;101363.70;111089;1213;97688;-63
2023/09/03 01:09:14;;;;;;;12.70;7.20;;;;;;;15.17;72.97;101364.12;111150;1208;97597;-62
2023/09/03 01:12:07;;;;;;;18.30;8.20;;;;;;;15.13;73.07;101362.13;111043;1212;97689;-62
2023/09/03 01:14:39;;;;;;;13.00;8.10;;;;;;;15.10;73.21;101367.36;111012;1208;99994;-62
2023/09/03 01:17:31;;;;;;;10.70;7.50;;;;;;;15.06;73.23;101365.57;111044;1210;106830;-62
2023/09/03 01:20:09;;;;;;;19.40;9.10;;;;;;;15.03;73.44;101365.92;111051;1212;97670;-62
2023/09/03 01:23:13;;;;;;;15.10;8.10;;;;;;;15.01;73.54;101359.90;111045;1209;95041;-62
2023/09/03 01:26:07;;;;;;;14.70;8.40;;;;;;;14.98;73.68;101360.41;111049;1212;111733;-63
2023/09/03 01:28:39;;;;;;;16.50;7.90;;;;;;;14.95;73.58;101362.38;111001;1213;100328;-62
2023/09/03 01:31:11;;;;;;;13.80;7.10;;;;;;;14.93;73.80;101362.10;111202;1212;107682;-63
2023/09/03 01:33:39;;;;;;;14.40;7.80;;;;;;;14.92;73.97;101366.63;111081;1212;97704;-62
2023/09/03 01:36:06;;;;;;;13.80;8.00;;;;;;;14.89;74.02;101364.98;111147;1212;97611;-62
2023/09/03 01:38:32;;;;;;;12.10;7.90;;;;;;;14.88;74.12;101369.55;111154;1211;97616;-63
2023/09/03 01:40:59;;;;;;;13.40;7.80;;;;;;;14.86;74.15;101372.36;111114;1209;98004;-62
2023/09/03 01:43:25;;;;;;;16.00;8.40;;;;;;;14.83;74.29;101378.41;111021;1212;97611;-62
2023/09/03 01:46:07;;;;;;;14.60;8.20;;;;;;;14.79;74.39;101377.91;111288;1208;97797;-62
2023/09/03 01:48:44;;;;;;;13.50;7.40;;;;;;;14.76;74.50;101376.95;111075;1211;110701;-62
2023/09/03 01:51:28;;;;;;;15.20;8.00;;;;;;;14.74;74.64;101376.35;111094;1209;99902;-62
2023/09/03 01:54:03;;;;;;;13.10;7.20;;;;;;;14.72;74.85;101377.16;111083;1208;108300;-62
2023/09/03 01:56:34;;;;;;;13.00;7.10;;;;;;;14.70;74.77;101384.66;111052;1214;97578;-63
2023/09/03 01:59:06;;;;;;;10.80;7.00;;;;;;;14.66;74.90;101378.01;110988;1208;97726;-62
2023/09/03 02:01:33;;;;;;;14.90;7.30;;;;;;;14.62;75.13;101368.66;110959;1209;110860;-63
2023/09/03 02:03:59;;;;;;;13.20;8.00;;;;;;;14.61;75.39;101367.09;111164;1214;97665;-62
2023/09/03 02:06:24;;;;;;;11.00;6.70;;;;;;;14.60;75.42;101361.38;111074;1212;97667;-62
2023/09/03 02:08:50;;;;;;;14.30;7.70;;;;;;;14.60;75.57;101357.44;111198;1209;97536;-61
2023/09/03 02:11:15;;;;;;;16.70;6.80;;;;;;;14.60;75.65;101360.83;111120;1209;97652;-63
2023/09/03 02:13:40;;;;;;;8.80;6.50;;;;;;;14.57;75.52;101358.65;111187;1214;99136;-62
2023/09/03 02:16:06;;;;;;;12.10;7.80;;;;;;;14.53;75.87;101355.27;111144;1208;97780;-62
2023/09/03 02:18:31;;;;;;;17.90;7.20;;;;;;;14.51;76.09;101355.89;111073;1208;96606;-62
2023/09/03 02:20:56;;;;;;;12.00;7.50;;;;;;;14.51;76.20;101350.48;111207;1214;97634;-62
2023/09/03 02:23:21;;;;;;;14.20;6.80;;;;;;;14.50;76.22;101345.34;111043;1211;97611;-62
2023/09/03 02:25:47;;;;;;;14.80;8.70;;;;;;;14.49;76.36;101341.06;111148;1214;97690;-62
2023/09/03 02:28:12;;;;;;;10.90;7.60;;;;;;;14.49;76.49;101342.67;111102;1213;97584;-62
2023/09/03 02:30:37;;;;;;;16.90;7.80;;;;;;;14.49;76.72;101342.11;111179;1213;97665;-62
2023/09/03 02:33:02;;;;;;;12.40;7.50;;;;;;;14.49;76.74;101337.46;111065;1211;98042;-62
2023/09/03 02:35:27;;;;;;;9.50;6.90;;;;;;;14.47;76.75;101338.45;111078;1208;97690;-63
2023/09/03 02:37:53;;;;;;;13.80;7.30;;;;;;;14.45;76.86;101335.86;111208;1214;97602;-62
2023/09/03 02:40:19;;;;;;;10.10;7.20;;;;;;;14.44;77.06;101328.72;111077;1208;97845;-62
2023/09/03 02:42:44;;;;;;;12.70;8.10;;;;;;;14.44;77.16;101326.04;111190;1211;97750;-62
2023/09/03 02:45:09;;;;;;;14.50;8.10;;;;;;;14.42;77.27;101329.17;111121;1208;97559;-63
2023/09/03 02:47:34;;;;;;;13.60;8.10;;;;;;;14.40;77.28;101329.08;111135;1208;97634;-62
2023/09/03 02:50:00;;;;;;;11.40;7.60;;;;;;;14.37;77.37;101328.48;111146;1214;97603;-62
2023/09/03 02:52:25;;;;;;;11.20;7.40;;;;;;;14.34;77.47;101330.61;111149;1214;97588;-63
2023/09/03 02:54:51;;;;;;;12.90;8.20;;;;;;;14.31;77.53;101330.05;111204;1214;97670;-62
2023/09/03 02:57:16;;;;;;;11.10;7.50;;;;;;;14.25;77.62;101324.54;111018;1209;97578;-62
2023/09/03 02:59:43;;;;;;;13.10;8.00;;;;;;;14.22;77.76;101320.92;111221;1212;97663;-62
2023/09/03 03:02:09;;;;;;;12.50;7.50;;;;;;;14.20;77.93;101319.95;111077;1208;111145;-62
2023/09/03 03:04:34;;;;;;;13.90;7.90;;;;;;;14.18;77.98;101325.09;111043;1208;97615;-62
2023/09/03 03:06:59;;;;;;;12.40;7.40;;;;;;;14.16;78.08;101320.89;111198;1209;97578;-63
2023/09/03 03:09:24;;;;;;;14.80;7.70;;;;;;;14.15;78.20;101321.80;111125;1212;97655;-63
2023/09/03 03:11:50;;;;;;;14.20;7.50;;;;;;;14.14;78.21;101322.92;111256;1209;96892;-63
2023/09/03 03:14:15;;;;;;;15.10;7.70;;;;;;;14.11;78.23;101316.98;111128;1214;97687;-64
2023/09/03 03:16:40;;;;;;;14.60;7.40;;;;;;;14.09;78.39;101324.27;111249;1208;97555;-63
2023/09/03 03:19:05;;;;;;;14.00;8.20;;;;;;;14.08;78.50;101322.51;111131;1209;111390;-64
2023/09/03 03:21:31;;;;;;;17.00;8.00;;;;;;;14.06;78.56;101324.61;111108;1208;97655;-64
2023/09/03 03:23:56;;;;;;;12.30;7.40;;;;;;;14.03;78.71;101322.95;111144;1214;97596;-64
2023/09/03 03:26:21;;;;;;;10.10;7.60;;;;;;;14.00;78.78;101327.19;111123;1208;96338;-64
2023/09/03 03:28:47;;;;;;;14.50;7.50;;;;;;;13.97;78.81;101329.84;111211;1214;97751;-64
2023/09/03 03:31:17;;;;;;;12.10;7.50;;;;;;;13.94;78.95;101330.88;111113;1212;98321;-64
2023/09/03 03:33:44;;;;;;;17.60;8.80;;;;;;;13.92;79.17;101337.08;111168;1208;97709;-64
2023/09/03 03:36:16;;;;;;;12.00;8.70;;;;;;;13.91;79.27;101342.86;111179;1209;97742;-64
2023/09/03 03:38:42;;;;;;;14.90;7.70;;;;;;;13.92;79.48;101345.90;111135;1212;111477;-64
2023/09/03 03:41:10;;;;;;;14.70;8.70;;;;;;;13.92;79.51;101347.34;111188;1208;97595;-64
2023/09/03 03:43:40;;;;;;;15.20;7.30;;;;;;;13.92;79.57;101359.17;111130;1220;98254;-64
2023/09/03 03:46:06;;;;;;;15.30;7.90;;;;;;;13.91;79.66;101359.61;111166;1212;97703;-64
2023/09/03 03:48:33;;;;;;;12.20;7.20;;;;;;;13.90;79.56;101361.77;111125;1209;97535;-64
2023/09/03 03:50:58;;;;;;;14.50;7.80;;;;;;;13.89;79.75;101358.77;111161;1211;97664;-62
2023/09/03 03:53:23;;;;;;;14.80;8.00;;;;;;;13.91;79.80;101358.31;111205;1212;97587;-63
2023/09/03 03:56:03;;;;;;;12.40;7.60;;;;;;;13.91;80.09;101362.98;111131;1209;97595;-62
2023/09/03 03:58:30;;;;;;;13.30;7.30;;;;;;;13.93;80.14;101363.63;111136;1212;97790;-63
2023/09/03 04:00:55;;;;;;;16.90;8.20;;;;;;;13.93;80.15;101365.41;111158;1208;98025;-64
2023/09/03 04:03:27;;;;;;;14.60;7.80;;;;;;;13.94;80.43;101367.89;111124;1212;97706;-62
2023/09/03 04:06:00;;;;;;;12.60;7.60;;;;;;;13.95;80.54;101370.73;111117;1213;107497;-62
2023/09/03 04:08:32;;;;;;;13.40;7.80;;;;;;;13.94;80.60;101371.67;111151;1212;97599;-62
2023/09/03 04:11:23;;;;;;;16.40;8.20;;;;;;;13.92;80.75;101366.71;111251;1214;97664;-62
2023/09/03 04:13:48;;;;;;;13.80;7.50;;;;;;;13.92;80.90;101367.08;111045;1208;111459;-62
2023/09/03 04:16:17;;;;;;;16.40;7.70;;;;;;;13.92;81.10;101373.55;111087;1212;97593;-62
2023/09/03 04:18:44;;;;;;;11.40;8.00;;;;;;;13.93;81.32;101376.39;111185;1209;97684;-63
2023/09/03 04:21:09;;;;;;;11.60;7.50;;;;;;;13.94;81.23;101375.63;111148;1208;97639;-63
2023/09/03 04:23:35;;;;;;;11.20;7.60;;;;;;;13.94;81.43;101377.59;111111;1209;96427;-63
2023/09/03 04:26:00;;;;;;;13.10;7.80;;;;;;;13.94;81.46;101376.50;111106;1213;97694;-64
2023/09/03 04:28:26;;;;;;;12.90;8.30;;;;;;;13.94;81.61;101379.21;111041;1210;97578;-63
2023/09/03 04:30:53;;;;;;;15.90;7.70;;;;;;;13.94;81.64;101380.31;111183;1214;97592;-63
2023/09/03 04:33:18;;;;;;;14.40;8.20;;;;;;;13.92;81.63;101381.08;111184;1212;111159;-64
2023/09/03 04:35:43;;;;;;;15.10;7.30;;;;;;;13.91;81.75;101378.64;111116;1215;97569;-63
2023/09/03 04:38:08;;;;;;;12.40;8.30;;;;;;;13.91;81.97;101380.27;111165;1214;97602;-63
2023/09/03 04:40:34;;;;;;;13.50;7.40;;;;;;;13.92;81.83;101380.40;111147;1209;97651;-63
2023/09/03 04:43:00;;;;;;;12.70;7.40;;;;;;;13.89;81.90;101380.89;111212;1215;97622;-63
2023/09/03 04:45:26;;;;;;;14.60;8.40;;;;;;;13.88;82.27;101385.58;111171;1209;107943;-63
2023/09/03 04:47:51;;;;;;;16.10;7.50;;;;;;;13.90;82.30;101385.52;111083;1208;96467;-64
2023/09/03 04:50:16;;;;;;;10.60;7.80;;;;;;;13.91;82.34;101394.61;111166;1214;97652;-63
2023/09/03 04:52:48;;;;;;;11.30;8.20;;;;;;;13.89;82.48;101393.29;111169;1209;97568;-64
2023/09/03 04:55:13;;;;;;;13.30;7.70;;;;;;;13.88;82.76;101394.41;111144;1209;107480;-64
2023/09/03 04:57:39;;;;;;;10.50;7.00;;;;;;;13.90;82.82;101394.33;111041;1212;97584;-64
2023/09/03 05:00:05;;;;;;;10.80;7.80;;;;;;;13.92;82.72;101395.83;111152;1209;97858;-63
2023/09/03 05:02:31;;;;;;;15.50;7.70;;;;;;;13.93;82.83;101392.94;111064;1212;98026;-63
2023/09/03 05:04:58;;;;;;;16.70;8.50;;;;;;;13.94;82.83;101392.67;111223;1209;97687;-64
2023/09/03 05:07:23;;;;;;;13.70;7.00;;;;;;;13.96;83.02;101395.84;111257;1209;97745;-63
2023/09/03 05:09:55;;;;;;;12.50;7.30;;;;;;;13.97;82.97;101400.09;111240;1212;97629;-63
2023/09/03 05:12:20;;;;;;;15.20;8.00;;;;;;;13.97;83.12;101403.14;111143;1212;99764;-63
2023/09/03 05:14:46;;;;;;;10.80;7.60;;;;;;;13.99;83.03;101408.45;111135;1214;97597;-63
2023/09/03 05:17:12;;;;;;;11.50;6.70;;;;;;;14.00;83.12;101408.06;111237;1212;97757;-63
2023/09/03 05:19:38;;;;;;;12.10;7.40;;;;;;;14.03;83.42;101416.18;111246;1209;97606;-63
2023/09/03 05:22:03;;;;;;;14.00;7.60;;;;;;;14.08;83.55;101417.74;111125;1209;97784;-63
2023/09/03 05:24:28;;;;;;;13.60;7.40;;;;;;;14.16;83.65;101421.73;111167;1209;97620;-64
2023/09/03 05:26:54;;;;;;;10.40;7.00;;;;;;;14.22;83.67;101423.04;111162;1220;97599;-63
2023/09/03 05:29:19;;;;;;;10.80;6.10;;;;;;;14.26;83.51;101417.44;111192;1208;97703;-63
2023/09/03 05:31:44;;;;;;;10.90;6.90;;;;;;;14.27;83.65;101422.98;111139;1209;97572;-63
2023/09/03 05:34:09;;;;;;;12.20;7.40;;;;;;;14.31;83.79;101428.21;111110;1210;97697;-63
2023/09/03 05:36:35;;;;;;;10.50;7.10;;;;;;;14.36;83.77;101432.45;111233;1209;96474;-63
2023/09/03 05:39:01;;;;;;;13.80;7.60;;;;;;;14.44;83.92;101428.16;111130;1212;97584;-63
2023/09/03 05:41:26;;;;;;;12.00;7.00;;;;;;;14.52;83.83;101427.61;111138;1209;98563;-64
2023/09/03 05:43:53;;;;;;;10.30;6.90;;;;;;;14.55;83.82;101426.18;111154;1212;97732;-64
2023/09/03 05:46:19;;;;;;;9.70;6.30;;;;;;;14.56;83.79;101429.91;111186;1208;98030;-64
2023/09/03 05:48:44;;;;;;;10.90;6.90;;;;;;;14.59;83.81;101432.13;111155;1209;97576;-63
2023/09/03 05:51:09;;;;;;;11.80;7.30;;;;;;;14.60;83.91;101435.45;111173;1212;97680;-64
2023/09/03 05:53:35;;;;;;;13.60;7.00;;;;;;;14.64;83.81;101429.58;111124;1209;97610;-64
2023/09/03 05:56:07;;;;;;;11.30;6.80;;;;;;;14.70;84.01;101428.37;111133;1212;98119;-64
2023/09/03 05:58:33;;;;;;;9.30;6.60;;;;;;;14.78;83.94;101426.90;111119;1210;107988;-64
2023/09/03 06:01:05;;;;;;;9.40;7.20;;;;;;;14.82;83.89;101427.42;111095;1212;97673;-63
2023/09/03 06:03:30;;;;;;;9.30;6.30;;;;;;;14.85;83.95;101426.16;111065;1212;97806;-64
2023/09/03 06:05:55;;;;;;;15.60;6.50;;;;;;;14.93;84.02;101428.34;111128;1212;97680;-64
2023/09/03 06:08:21;;;;;;;8.20;5.80;;;;;;;15.00;84.02;101436.60;111148;1210;95977;-64
2023/09/03 06:10:46;;;;;;;8.10;5.80;;;;;;;15.08;83.93;101437.31;111118;1214;97687;-64
2023/09/03 06:13:11;;;;;;;11.00;5.90;;;;;;;15.14;83.84;101433.93;111018;1209;97556;-64
2023/09/03 06:15:36;;;;;;;13.00;6.40;;;;;;;15.20;83.79;101432.72;111095;1212;97678;-64
2023/09/03 06:18:02;;;;;;;10.20;5.90;;;;;;;15.27;83.76;101431.83;111060;1210;97592;-63
2023/09/03 06:20:27;;;;;;;9.00;5.70;;;;;;;15.36;83.60;101425.48;111133;1209;97704;-63
2023/09/03 06:22:52;;;;;;;9.90;5.80;;;;;;;15.45;83.65;101428.59;111051;1209;98018;-64
2023/09/03 06:25:18;;;;;;;8.00;5.60;;;;;;;15.55;83.56;101434.75;111076;1210;97680;-64
2023/09/03 06:27:44;;;;;;;11.80;5.90;;;;;;;15.63;83.48;101436.88;111096;1210;97753;-64
2023/09/03 06:30:10;;;;;;;10.10;5.40;;;;;;;15.71;83.56;101439.68;111095;1214;97109;-64
2023/09/03 06:32:36;;;;;;;13.40;5.70;;;;;;;15.81;83.45;101435.55;111318;1212;97650;-64
2023/09/03 06:35:04;;;;;;;10.40;5.70;;;;;;;15.91;83.35;101441.84;111051;1212;99544;-64
2023/09/03 06:37:29;;;;;;;10.80;6.00;;;;;;;15.99;83.31;101444.89;111072;1209;97611;-64
2023/09/03 06:39:54;;;;;;;9.00;5.20;;;;;;;16.08;83.31;101445.09;111129;1212;97684;-64
2023/09/03 06:42:19;;;;;;;6.40;4.80;;;;;;;16.18;82.99;101447.05;111101;1209;97958;-63
2023/09/03 06:44:44;;;;;;;7.20;5.20;;;;;;;16.30;82.97;101450.58;111078;1212;97732;-63
2023/09/03 06:47:10;;;;;;;8.50;5.80;;;;;;;16.41;82.97;101449.98;111158;1212;97565;-64
2023/09/03 06:49:35;;;;;;;10.00;5.20;;;;;;;16.52;82.82;101456.39;111086;1212;97675;-64
2023/09/03 06:52:00;;;;;;;8.80;5.00;;;;;;;16.63;82.77;101455.45;111128;1212;97569;-63
2023/09/03 06:54:25;;;;;;;9.30;5.30;;;;;;;16.69;82.41;101445.20;110961;1212;97645;-64
2023/09/03 06:56:51;;;;;;;8.20;5.00;;;;;;;16.77;82.37;101445.82;111062;1209;97682;-64
2023/09/03 06:59:16;;;;;;;6.00;4.20;;;;;;;16.85;82.36;101446.95;111142;1212;99089;-63
2023/09/03 07:01:41;;;;;;;7.80;4.30;;;;;;;16.91;82.04;101442.30;111155;1212;97757;-63
2023/09/03 07:04:06;;;;;;;8.00;4.90;;;;;;;16.99;82.09;101448.16;111117;1209;96178;-64
2023/09/03 07:06:32;;;;;;;7.10;5.10;;;;;;;17.11;81.94;101453.65;111036;1212;98897;-63
2023/09/03 07:08:57;;;;;;;7.10;3.90;;;;;;;17.21;81.77;101458.64;111127;1212;97600;-64
2023/09/03 07:11:22;;;;;;;8.50;4.70;;;;;;;17.33;81.79;101462.31;111046;1210;97609;-64
2023/09/03 07:13:49;;;;;;;5.50;4.30;;;;;;;17.41;81.53;101467.95;110992;1209;98125;-64
2023/09/03 07:16:14;;;;;;;5.60;4.20;;;;;;;17.48;81.47;101468.61;111129;1210;98087;-64
2023/09/03 07:18:40;;;;;;;9.50;3.90;;;;;;;17.58;81.34;101468.58;111058;1209;98947;-64
2023/09/03 07:21:07;;;;;;;7.60;4.50;;;;;;;17.68;81.09;101477.41;111102;1212;97709;-65
2023/09/03 07:23:33;;;;;;;7.10;4.40;;;;;;;17.75;80.92;101483.11;111087;1209;97595;-62
2023/09/03 07:26:04;;;;;;;8.90;3.80;;;;;;;17.83;80.83;101485.55;111297;1209;97864;-63
2023/09/03 07:28:30;;;;;;;3.90;3.40;;;;;;;17.92;80.63;101489.30;111093;1209;98980;-63
2023/09/03 07:30:55;;;;;;;6.50;3.80;;;;;;;18.01;80.46;101493.10;111086;1210;97763;-63
2023/09/03 07:33:21;;;;;;;7.10;4.00;;;;;;;18.08;80.18;101496.13;111175;1209;95026;-62
2023/09/03 07:35:46;;;;;;;8.40;3.90;;;;;;;18.18;80.07;101505.83;111137;1212;97707;-63
2023/09/03 07:38:11;;;;;;;6.70;3.40;;;;;;;18.27;79.92;101509.95;111077;1209;99743;-63
2023/09/03 07:40:39;;;;;;;4.70;3.00;;;;;;;18.33;79.82;101512.80;111089;1209;97631;-62
2023/09/03 07:43:05;;;;;;;6.90;3.70;;;;;;;18.39;79.51;101518.23;111074;1209;111612;-63
2023/09/03 07:45:30;;;;;;;6.10;3.20;;;;;;;18.44;79.20;101521.70;111070;1212;97650;-63
2023/09/03 07:47:56;;;;;;;5.20;3.30;;;;;;;18.46;79.08;101518.52;111095;1210;97705;-63
2023/09/03 07:50:21;;;;;;;9.50;3.90;;;;;;;18.50;79.01;101520.60;111124;1209;97680;-63
2023/09/03 07:52:46;;;;;;;4.80;3.00;;;;;;;18.56;78.92;101521.15;111135;1212;97698;-63
2023/09/03 07:55:12;;;;;;;4.50;3.00;;;;;;;18.61;78.49;101523.60;111037;1209;99383;-63
2023/09/03 07:57:37;;;;;;;4.40;2.60;;;;;;;18.64;78.15;101523.92;111040;1212;97700;-62
2023/09/03 08:00:03;;;;;;;4.60;3.00;;;;;;;18.72;78.04;101521.41;111144;1209;99046;-62
2023/09/03 08:02:29;;;;;;;7.40;2.80;;;;;;;18.81;77.87;101513.25;111088;1212;97662;-63
2023/09/03 08:04:55;;;;;;;5.00;3.10;;;;;;;18.90;77.48;101511.07;111094;1209;99279;-62
2023/09/03 08:07:20;;;;;;;4.30;2.50;;;;;;;19.00;77.09;101516.73;111124;1210;97607;-63
2023/09/03 08:09:46;;;;;;;7.30;2.70;;;;;;;19.06;76.60;101522.85;111077;1210;98022;-63
2023/09/03 08:12:11;;;;;;;5.50;2.50;;;;;;;19.17;76.39;101529.59;110998;1209;98884;-63
2023/09/03 08:14:37;;;;;;;4.40;2.90;;;;;;;19.31;75.97;101524.31;111211;1212;97747;-63
2023/09/03 08:17:03;;;;;;;5.60;2.80;;;;;;;19.39;75.46;101521.94;111117;1208;97720;-62
2023/09/03 08:19:28;;;;;;;3.90;2.10;;;;;;;19.50;75.16;101523.08;111084;1210;97606;-63
2023/09/03 08:21:54;;;;;;;4.00;2.40;;;;;;;19.57;74.75;101529.10;111159;1209;97862;-63
2023/09/03 08:24:19;;;;;;;6.30;3.10;;;;;;;19.62;74.03;101536.05;111048;1209;97584;-63
2023/09/03 08:26:44;;;;;;;5.60;2.70;;;;;;;19.64;73.49;101534.98;111165;1212;97754;-63
2023/09/03 08:29:10;;;;;;;4.70;2.70;;;;;;;19.69;73.12;101536.13;111068;1209;97575;-62
2023/09/03 08:31:35;;;;;;;3.60;2.30;;;;;;;19.74;72.47;101536.52;111076;1208;97697;-63
2023/09/03 08:34:01;;;;;;;3.70;2.20;;;;;;;19.74;71.66;101535.23;111139;1210;97594;-62
2023/09/03 08:36:26;;;;;;;7.80;2.40;;;;;;;19.80;71.65;101533.56;111050;1212;97732;-62
2023/09/03 08:38:52;;;;;;;5.00;2.50;;;;;;;19.90;71.45;101538.16;111130;1210;98002;-63
2023/09/03 08:41:18;;;;;;;6.00;2.40;;;;;;;19.99;71.19;101535.36;111130;1209;97591;-63
2023/09/03 08:43:47;;;;;;;3.90;2.00;;;;;;;20.02;70.83;101531.88;111082;1212;97670;-62
2023/09/03 08:46:16;;;;;;;2.80;2.20;;;;;;;19.95;70.43;101525.98;111082;1210;102757;-63
2023/09/03 08:48:42;;;;;;;6.50;2.60;;;;;;;19.99;70.30;101523.58;111205;1209;97626;-63
2023/09/03 08:51:09;;;;;;;4.60;2.50;;;;;;;20.06;70.26;101525.79;111163;1209;98989;-63
2023/09/03 08:53:36;;;;;;;4.10;2.70;;;;;;;20.09;69.97;101528.44;111160;1209;97589;-63
2023/09/03 08:56:02;;;;;;;2.90;2.40;;;;;;;20.12;69.87;101531.67;111081;1212;97630;-62
2023/09/03 08:58:27;;;;;;;6.70;2.60;;;;;;;20.14;69.62;101537.39;111151;1212;97676;-62
2023/09/03 09:00:55;;;;;;;3.90;2.60;;;;;;;20.23;69.42;101538.38;111058;1212;97682;-62
2023/09/03 09:03:24;;;;;;;5.10;3.10;;;;;;;20.36;69.39;101538.95;111141;1212;97691;-62
2023/09/03 09:05:51;;;;;;;4.60;2.80;;;;;;;20.47;69.15;101548.21;111066;1209;98349;-62
2023/09/03 09:08:16;;;;;;;3.60;2.90;;;;;;;20.53;68.81;101553.77;111091;1209;98180;-62
2023/09/03 09:10:52;;;;;;;4.60;2.90;;;;;;;20.54;68.53;101548.76;111130;1209;97681;-62
2023/09/03 09:13:21;;;;;;;4.30;2.50;;;;;;;20.57;68.13;101542.20;111041;1212;97614;-62
2023/09/03 09:15:46;;;;;;;3.90;2.70;;;;;;;20.56;67.71;101539.55;111171;1208;94960;-63
2023/09/03 09:18:12;;;;;;;3.70;2.70;;;;;;;20.61;67.71;101543.00;111047;1214;98179;-64
2023/09/03 09:20:41;;;;;;;3.60;2.50;;;;;;;20.64;67.05;101546.43;111148;1209;96606;-64
2023/09/03 09:23:07;;;;;;;3.00;2.20;;;;;;;20.59;66.91;101541.50;111075;1209;97667;-64
2023/09/03 09:25:34;;;;;;;4.20;2.50;;;;;;;20.65;66.84;101538.71;111208;1208;97648;-63
2023/09/03 09:28:09;;;;;;;2.70;2.10;;;;;;;20.64;66.38;101538.38;111049;1209;97636;-63
2023/09/03 09:30:34;;;;;;;3.30;2.10;;;;;;;20.70;66.25;101534.52;111072;1212;97611;-63
2023/09/03 09:33:05;;;;;;;6.10;2.10;;;;;;;20.72;65.38;101532.71;111022;1208;97614;-63
2023/09/03 09:35:31;;;;;;;5.00;2.60;;;;;;;20.63;64.87;101532.69;111029;1210;97642;-63
2023/09/03 09:38:05;;;;;;;2.30;2.00;;;;;;;20.60;64.65;101533.78;111082;1212;98180;-63
2023/09/03 09:40:30;;;;;;;3.50;2.10;;;;;;;20.55;63.33;101532.86;111167;1209;103560;-63
2023/09/03 09:42:57;;;;;;;5.90;2.40;;;;;;;20.57;63.52;101527.33;111087;1209;97609;-63
2023/09/03 09:45:23;;;;;;;4.10;2.00;;;;;;;20.67;63.32;101532.04;111037;1209;97690;-63
2023/09/03 09:48:09;;;;;;;4.30;2.20;;;;;;;20.71;62.91;101534.65;111155;1209;97565;-63
2023/09/03 09:50:36;;;;;;;3.20;2.10;;;;;;;20.86;62.96;101534.11;111161;1209;103109;-62
2023/09/03 09:53:02;;;;;;;5.90;2.20;;;;;;;20.98;62.71;101534.09;111102;1209;97492;-62
2023/09/03 09:55:29;;;;;;;5.00;2.50;;;;;;;21.02;62.12;101539.40;111064;1209;97649;-63
2023/09/03 09:57:55;;;;;;;5.70;2.20;;;;;;;20.99;61.60;101539.63;111092;1210;96969;-62
2023/09/03 10:00:37;;;;;;;3.10;2.20;;;;;;;21.07;61.56;101543.25;111117;1209;97591;-63
2023/09/03 10:03:10;;;;;;;4.40;2.10;;;;;;;21.05;60.41;101546.11;111067;1210;97590;-62
2023/09/03 10:05:36;;;;;;;4.10;2.00;;;;;;;20.97;59.69;101544.55;111058;1208;98919;-63
2023/09/03 10:08:02;;;;;;;3.70;2.30;;;;;;;20.94;59.72;101551.86;111094;1210;97739;-63
2023/09/03 10:10:27;;;;;;;4.00;2.10;;;;;;;20.96;59.11;101553.17;111149;1212;96250;-62
2023/09/03 10:12:53;;;;;;;3.40;2.40;;;;;;;20.92;59.40;101547.09;111112;1208;97657;-63
2023/09/03 10:15:21;;;;;;;4.80;2.40;;;;;;;20.96;59.58;101553.15;111077;1209;97677;-63
2023/09/03 10:17:51;;;;;;;5.90;3.10;;;;;;;20.96;59.26;101549.36;111097;1210;97629;-63
2023/09/03 10:20:19;;;;;;;4.20;2.50;;;;;;;20.92;59.36;101550.56;111094;1212;97617;-62
2023/09/03 10:22:47;;;;;;;3.00;2.70;;;;;;;20.98;59.63;101554.79;111101;1212;103409;-63
2023/09/03 10:25:16;;;;;;;5.90;2.70;;;;;;;21.00;59.22;101555.39;111046;1209;97656;-62
2023/09/03 10:27:47;;;;;;;4.30;2.60;;;;;;;20.95;59.03;101556.27;111070;1208;99885;-62
2023/09/03 10:30:19;;;;;;;4.10;2.10;;;;;;;20.97;58.70;101558.36;111044;1212;97688;-62
2023/09/03 10:32:45;;;;;;;7.40;2.20;;;;;;;20.97;58.53;101560.89;111096;1210;96418;-62
2023/09/03 10:35:12;;;;;;;3.30;2.00;;;;;;;20.93;58.18;101558.25;110990;1212;97707;-62
2023/09/03 10:37:39;;;;;;;3.50;2.10;;;;;;;20.90;58.11;101559.98;111123;1209;95111;-62
2023/09/03 10:40:19;;;;;;;3.70;2.10;;;;;;;20.90;57.96;101559.41;111099;1209;97657;-62
2023/09/03 10:42:44;;;;;;;3.30;2.40;;;;;;;20.91;57.73;101557.69;111099;1209;97581;-63
2023/09/03 10:45:13;;;;;;;3.70;2.10;;;;;;;20.91;57.47;101557.14;111089;1212;98263;-63
2023/09/03 10:48:01;;;;;;;1.80;1.60;;;;;;;20.99;57.73;101556.73;111092;1209;95412;-62
2023/09/03 10:50:43;;;;;;;5.50;2.00;;;;;;;21.09;57.63;101558.34;111077;1212;97677;-62
2023/09/03 10:53:29;;;;;;;4.40;2.10;;;;;;;21.11;57.21;101558.25;111070;1208;99327;-62
2023/09/03 10:56:14;;;;;;;2.90;2.20;;;;;;;21.16;57.18;101553.50;111123;1212;97709;-63
2023/09/03 10:58:59;;;;;;;4.60;1.90;;;;;;;21.18;57.11;101552.27;111079;1212;97708;-63
2023/09/03 11:01:32;;;;;;;2.50;1.80;;;;;;;21.16;56.88;101553.15;111105;1212;102957;-63
2023/09/03 11:04:02;;;;;;;4.70;2.00;;;;;;;21.12;56.59;101555.08;111062;1209;96143;-63
2023/09/03 11:06:31;;;;;;;2.80;1.70;;;;;;;21.11;56.25;101558.61;111029;1212;98946;-63
2023/09/03 11:09:08;;;;;;;3.50;1.90;;;;;;;21.12;56.17;101556.89;111070;1210;98842;-63
2023/09/03 11:11:35;;;;;;;2.40;1.80;;;;;;;21.13;56.21;101559.02;111072;1209;97755;-62
2023/09/03 11:14:01;;;;;;;3.40;2.20;;;;;;;21.17;56.33;101557.42;111066;1209;98313;-63